createdAt,value
2023-05-10T00:00:43.803Z,85.36
2023-05-10T00:01:44.469Z,85.46
2023-05-10T00:02:43.835Z,85.16
2023-05-10T00:03:43.873Z,85.70
2023-05-10T00:04:43.769Z,85.80
2023-05-10T00:05:43.767Z,86.82
2023-05-10T00:06:43.771Z,87.02
2023-05-10T00:07:43.755Z,87.56
2023-05-10T00:08:43.733Z,88.48
2023-05-10T00:09:43.753Z,88.88
2023-05-10T00:10:43.700Z,88.17
2023-05-10T00:11:43.755Z,88.27
2023-05-10T00:12:43.724Z,88.27
2023-05-10T00:13:43.725Z,88.37
2023-05-10T00:14:43.665Z,88.57
2023-05-10T00:15:43.651Z,88.88
2023-05-10T00:16:43.682Z,88.78
2023-05-10T00:17:43.637Z,90.40
2023-05-10T00:18:43.671Z,89.73
2023-05-10T00:19:43.604Z,90.14
2023-05-10T00:20:43.655Z,90.64
2023-05-10T00:21:43.601Z,90.84
2023-05-10T00:22:43.586Z,90.75
2023-05-10T00:23:43.558Z,90.95
2023-05-10T00:24:43.606Z,91.15
2023-05-10T00:25:43.537Z,91.25
2023-05-10T00:26:43.545Z,90.95
2023-05-10T00:27:43.519Z,91.15
2023-05-10T00:28:43.545Z,91.86
2023-05-10T00:29:43.553Z,92.36
2023-05-10T00:30:44.152Z,92.47
2023-05-10T00:31:43.501Z,92.47
2023-05-10T00:32:43.534Z,91.55
2023-05-10T00:33:43.467Z,91.86
2023-05-10T00:34:43.464Z,93.02
2023-05-10T00:35:43.443Z,93.32
2023-05-10T00:36:43.431Z,92.47
2023-05-10T00:37:43.442Z,92.67
2023-05-10T00:38:43.436Z,92.41
2023-05-10T00:39:43.388Z,92.41
2023-05-10T00:40:43.397Z,92.91
2023-05-10T00:41:43.357Z,93.42
2023-05-10T00:42:43.407Z,93.73
2023-05-10T00:43:49.872Z,93.83
2023-05-10T00:44:43.377Z,93.99
2023-05-10T00:45:43.360Z,93.48
2023-05-10T00:46:43.323Z,93.18
2023-05-10T00:47:43.401Z,92.77
2023-05-10T00:48:43.316Z,92.87
2023-05-10T00:49:43.275Z,92.47
2023-05-10T00:50:43.332Z,92.47
2023-05-10T00:51:43.260Z,92.67
2023-05-10T00:52:43.266Z,92.57
2023-05-10T00:53:43.229Z,92.77
2023-05-10T00:54:43.264Z,92.97
2023-05-10T00:55:43.210Z,93.27
2023-05-10T00:56:43.226Z,93.18
2023-05-10T00:57:43.184Z,93.27
2023-05-10T00:58:43.224Z,93.07
2023-05-10T00:59:43.179Z,93.18
2023-05-10T01:00:44.325Z,93.68
2023-05-10T01:01:43.206Z,93.42
2023-05-10T01:02:43.279Z,93.52
2023-05-10T01:03:43.119Z,93.52
2023-05-10T01:04:43.211Z,93.93
2023-05-10T01:05:43.134Z,93.83
2023-05-10T01:06:43.108Z,93.62
2023-05-10T01:07:43.105Z,93.42
2023-05-10T01:08:43.099Z,93.73
2023-05-10T01:09:43.073Z,94.13
2023-05-10T01:10:43.096Z,94.48
2023-05-10T01:11:43.055Z,94.74
2023-05-10T01:12:43.186Z,94.64
2023-05-10T01:13:43.056Z,94.34
2023-05-10T01:14:43.041Z,94.64
2023-05-10T01:15:43.045Z,94.13
2023-05-10T01:16:43.016Z,94.34
2023-05-10T01:17:42.985Z,94.03
2023-05-10T01:18:43.017Z,93.52
2023-05-10T01:19:42.980Z,94.43
2023-05-10T01:20:42.968Z,94.34
2023-05-10T01:21:42.935Z,94.27
2023-05-10T01:22:42.956Z,94.38
2023-05-10T01:23:42.921Z,94.48
2023-05-10T01:24:42.956Z,94.98
2023-05-10T01:25:42.888Z,94.83
2023-05-10T01:26:42.921Z,95.54
2023-05-10T01:27:42.869Z,96.15
2023-05-10T01:28:42.931Z,95.74
2023-05-10T01:29:42.850Z,95.94
2023-05-10T01:30:43.297Z,95.38
2023-05-10T01:31:42.910Z,95.48
2023-05-10T01:32:42.862Z,95.89
2023-05-10T01:33:42.812Z,95.38
2023-05-10T01:34:42.823Z,95.28
2023-05-10T01:35:42.811Z,95.23
2023-05-10T01:36:42.801Z,95.07
2023-05-10T01:37:42.763Z,95.34
2023-05-10T01:38:42.815Z,95.03
2023-05-10T01:39:42.746Z,95.03
2023-05-10T01:40:42.765Z,95.03
2023-05-10T01:41:42.721Z,94.12
2023-05-10T01:42:42.734Z,94.62
2023-05-10T01:43:42.730Z,94.53
2023-05-10T01:44:42.716Z,94.37
2023-05-10T01:45:42.689Z,94.98
2023-05-10T01:46:42.719Z,95.18
2023-05-10T01:47:42.686Z,94.98
2023-05-10T01:48:42.660Z,95.18
2023-05-10T01:49:42.694Z,94.73
2023-05-10T01:50:42.649Z,94.32
2023-05-10T01:51:42.616Z,93.81
2023-05-10T01:52:42.635Z,94.02
2023-05-10T01:53:42.588Z,93.91
2023-05-10T01:54:42.626Z,93.51
2023-05-10T01:55:42.578Z,93.41
2023-05-10T01:56:42.594Z,93.41
2023-05-10T01:57:42.552Z,92.80
2023-05-10T01:58:42.567Z,92.49
2023-05-10T01:59:42.555Z,92.60
2023-05-10T02:00:42.564Z,92.60
2023-05-10T02:01:42.534Z,92.80
2023-05-10T02:02:42.554Z,93.10
2023-05-10T02:03:42.520Z,92.80
2023-05-10T02:04:42.499Z,93.25
2023-05-10T02:05:42.511Z,94.57
2023-05-10T02:06:42.482Z,94.06
2023-05-10T02:07:42.463Z,93.86
2023-05-10T02:08:42.464Z,93.76
2023-05-10T02:09:42.430Z,93.86
2023-05-10T02:10:42.486Z,93.65
2023-05-10T02:11:42.408Z,93.65
2023-05-10T02:12:42.450Z,93.35
2023-05-10T02:13:42.380Z,93.35
2023-05-10T02:14:42.438Z,93.45
2023-05-10T02:15:42.398Z,93.61
2023-05-10T02:16:42.487Z,94.12
2023-05-10T02:17:42.381Z,94.02
2023-05-10T02:18:42.352Z,94.22
2023-05-10T02:19:42.335Z,93.91
2023-05-10T02:20:42.373Z,93.91
2023-05-10T02:21:42.316Z,94.12
2023-05-10T02:22:42.324Z,94.12
2023-05-10T02:23:42.273Z,93.96
2023-05-10T02:24:42.293Z,94.46
2023-05-10T02:25:42.298Z,94.67
2023-05-10T02:26:42.271Z,94.98
2023-05-10T02:27:42.244Z,95.07
2023-05-10T02:28:42.250Z,95.13
2023-05-10T02:29:42.215Z,94.93
2023-05-10T02:30:42.284Z,94.32
2023-05-10T02:31:42.216Z,94.42
2023-05-10T02:32:42.279Z,94.87
2023-05-10T02:33:42.161Z,95.68
2023-05-10T02:34:42.188Z,95.79
2023-05-10T02:35:42.165Z,95.89
2023-05-10T02:36:42.186Z,96.19
2023-05-10T02:37:42.138Z,96.23
2023-05-10T02:38:42.141Z,96.64
2023-05-10T02:39:42.116Z,97.15
2023-05-10T02:40:42.168Z,96.95
2023-05-10T02:41:42.091Z,96.84
2023-05-10T02:42:42.115Z,97.15
2023-05-10T02:43:42.076Z,97.56
2023-05-10T02:44:42.087Z,97.76
2023-05-10T02:45:42.103Z,97.86
2023-05-10T02:46:42.069Z,98.47
2023-05-10T02:47:42.107Z,98.57
2023-05-10T02:48:42.048Z,98.62
2023-05-10T02:49:42.016Z,98.62
2023-05-10T02:50:42.047Z,98.82
2023-05-10T02:51:42.008Z,99.13
2023-05-10T02:52:42.007Z,99.53
2023-05-10T02:53:42.000Z,99.43
2023-05-10T02:54:42.016Z,99.63
2023-05-10T02:55:41.974Z,99.63
2023-05-10T02:56:41.960Z,99.63
2023-05-10T02:57:41.922Z,99.84
2023-05-10T02:58:41.977Z,99.84
2023-05-10T02:59:41.894Z,99.13
2023-05-10T03:00:41.907Z,99.02
2023-05-10T03:01:41.932Z,99.13
2023-05-10T03:02:41.919Z,99.22
2023-05-10T03:03:41.904Z,99.22
2023-05-10T03:04:41.906Z,99.22
2023-05-10T03:05:41.853Z,99.33
2023-05-10T03:06:41.854Z,99.33
2023-05-10T03:07:41.852Z,99.22
2023-05-10T03:08:41.833Z,99.22
2023-05-10T03:09:41.807Z,99.63
2023-05-10T03:10:41.846Z,99.84
2023-05-10T03:11:41.782Z,99.84
2023-05-10T03:12:41.834Z,99.94
2023-05-10T03:13:41.792Z,99.94
2023-05-10T03:14:41.770Z,99.84
2023-05-10T03:15:41.802Z,99.74
2023-05-10T03:16:44.159Z,99.63
2023-05-10T03:17:41.741Z,99.99
2023-05-10T03:18:41.746Z,99.94
2023-05-10T03:19:41.728Z,99.84
2023-05-10T03:20:41.714Z,99.99
2023-05-10T03:21:41.681Z,99.89
2023-05-10T03:22:41.689Z,99.69
2023-05-10T03:23:41.628Z,99.02
2023-05-10T03:24:41.664Z,98.57
2023-05-10T03:25:41.639Z,98.47
2023-05-10T03:26:41.642Z,98.21
2023-05-10T03:27:41.558Z,97.80
2023-05-10T03:28:41.636Z,98.01
2023-05-10T03:29:41.611Z,98.32
2023-05-10T03:30:41.604Z,98.01
2023-05-10T03:31:41.638Z,98.11
2023-05-10T03:32:41.670Z,98.41
2023-05-10T03:33:41.557Z,98.52
2023-05-10T03:34:41.567Z,98.72
2023-05-10T03:35:41.542Z,98.92
2023-05-10T03:36:41.539Z,98.72
2023-05-10T03:37:56.419Z,98.27
2023-05-10T03:38:41.492Z,98.32
2023-05-10T03:39:41.461Z,97.91
2023-05-10T03:40:41.442Z,97.80
2023-05-10T03:41:41.432Z,97.60
2023-05-10T03:42:41.436Z,97.71
2023-05-10T03:43:41.460Z,97.40
2023-05-10T03:44:41.435Z,96.79
2023-05-10T03:45:41.379Z,96.75
2023-05-10T03:46:41.379Z,96.44
2023-05-10T03:47:41.387Z,96.14
2023-05-10T03:48:41.364Z,95.63
2023-05-10T03:49:41.356Z,95.32
2023-05-10T03:50:41.347Z,95.12
2023-05-10T03:51:41.320Z,93.40
2023-05-10T03:52:41.318Z,94.10
2023-05-10T03:53:41.320Z,95.06
2023-05-10T03:54:41.303Z,94.15
2023-05-10T03:55:41.273Z,93.33
2023-05-10T03:56:41.326Z,93.64
2023-05-10T03:57:41.247Z,93.84
2023-05-10T03:58:41.277Z,94.05
2023-05-10T03:59:41.237Z,93.95
2023-05-10T04:00:41.246Z,93.44
2023-05-10T04:01:41.237Z,92.22
2023-05-10T04:02:41.570Z,92.42
2023-05-10T04:03:41.229Z,92.42
2023-05-10T04:04:41.191Z,92.83
2023-05-10T04:05:41.174Z,92.48
2023-05-10T04:06:41.213Z,91.97
2023-05-10T04:07:41.151Z,91.30
2023-05-10T04:08:41.181Z,91.82
2023-05-10T04:09:41.136Z,92.63
2023-05-10T04:10:41.139Z,92.22
2023-05-10T04:11:41.139Z,92.32
2023-05-10T04:12:41.141Z,91.82
2023-05-10T04:13:41.101Z,91.30
2023-05-10T04:14:41.111Z,90.70
2023-05-10T04:15:41.076Z,90.29
2023-05-10T04:16:41.140Z,90.90
2023-05-10T04:17:41.115Z,90.70
2023-05-10T04:18:41.058Z,90.90
2023-05-10T04:19:41.018Z,91.51
2023-05-10T04:20:41.083Z,90.49
2023-05-10T04:21:41.007Z,89.48
2023-05-10T04:22:41.011Z,90.19
2023-05-10T04:23:40.977Z,90.23
2023-05-10T04:24:41.017Z,89.22
2023-05-10T04:25:40.947Z,89.42
2023-05-10T04:26:41.007Z,89.83
2023-05-10T04:27:40.946Z,90.44
2023-05-10T04:28:40.968Z,90.84
2023-05-10T04:29:40.970Z,90.94
2023-05-10T04:30:40.966Z,91.14
2023-05-10T04:31:40.922Z,91.05
2023-05-10T04:32:40.935Z,91.14
2023-05-10T04:33:40.898Z,91.45
2023-05-10T04:34:40.857Z,91.14
2023-05-10T04:35:40.940Z,90.94
2023-05-10T04:36:40.891Z,91.14
2023-05-10T04:37:40.875Z,91.05
2023-05-10T04:38:40.836Z,90.64
2023-05-10T04:39:42.352Z,91.14
2023-05-10T04:40:40.836Z,92.06
2023-05-10T04:41:40.834Z,92.36
2023-05-10T04:42:40.773Z,92.63
2023-05-10T04:43:40.803Z,92.83
2023-05-10T04:44:40.763Z,93.03
2023-05-10T04:45:40.766Z,92.02
2023-05-10T04:46:40.825Z,93.18
2023-05-10T04:47:40.760Z,93.28
2023-05-10T04:48:40.740Z,93.07
2023-05-10T04:49:40.732Z,94.09
2023-05-10T04:50:40.697Z,94.40
2023-05-10T04:51:40.737Z,95.62
2023-05-10T04:52:40.684Z,96.53
2023-05-10T04:53:41.800Z,92.36
2023-05-10T04:54:40.658Z,90.94
2023-05-10T04:55:40.666Z,91.05
2023-05-10T04:56:40.658Z,93.24
2023-05-10T04:57:40.681Z,93.84
2023-05-10T04:58:40.609Z,94.15
2023-05-10T04:59:40.636Z,94.15
2023-05-10T05:00:40.609Z,94.15
2023-05-10T05:01:40.698Z,94.86
2023-05-10T05:02:40.677Z,95.37
2023-05-10T05:03:40.715Z,95.42
2023-05-10T05:04:40.565Z,94.15
2023-05-10T05:05:40.599Z,93.24
2023-05-10T05:06:40.548Z,93.74
2023-05-10T05:07:40.574Z,94.05
2023-05-10T05:08:40.523Z,94.96
2023-05-10T05:09:40.530Z,94.35
2023-05-10T05:10:40.528Z,94.25
2023-05-10T05:11:40.544Z,94.35
2023-05-10T05:12:40.484Z,95.21
2023-05-10T05:13:40.488Z,96.48
2023-05-10T05:14:40.459Z,96.89
2023-05-10T05:15:40.490Z,95.78
2023-05-10T05:16:40.514Z,94.56
2023-05-10T05:17:40.456Z,95.57
2023-05-10T05:18:40.402Z,94.96
2023-05-10T05:19:40.429Z,94.86
2023-05-10T05:20:40.401Z,94.96
2023-05-10T05:21:40.429Z,94.05
2023-05-10T05:22:40.375Z,95.26
2023-05-10T05:23:40.375Z,95.17
2023-05-10T05:24:40.354Z,94.09
2023-05-10T05:25:40.373Z,94.50
2023-05-10T05:26:40.362Z,96.23
2023-05-10T05:27:40.360Z,96.63
2023-05-10T05:28:40.314Z,96.94
2023-05-10T05:29:40.324Z,97.14
2023-05-10T05:30:40.300Z,96.43
2023-05-10T05:31:40.358Z,96.28
2023-05-10T05:32:40.324Z,96.08
2023-05-10T05:33:40.288Z,95.87
2023-05-10T05:34:40.251Z,96.02
2023-05-10T05:35:40.263Z,95.31
2023-05-10T05:36:40.257Z,95.62
2023-05-10T05:37:40.275Z,95.51
2023-05-10T05:38:40.207Z,95.41
2023-05-10T05:39:40.211Z,95.31
2023-05-10T05:40:40.181Z,95.51
2023-05-10T05:41:40.194Z,95.72
2023-05-10T05:42:40.190Z,96.43
2023-05-10T05:43:40.173Z,96.23
2023-05-10T05:44:40.140Z,96.02
2023-05-10T05:45:40.183Z,95.51
2023-05-10T05:46:40.146Z,95.21
2023-05-10T05:47:40.215Z,95.01
2023-05-10T05:48:40.089Z,94.50
2023-05-10T05:49:40.121Z,94.70
2023-05-10T05:50:40.095Z,94.20
2023-05-10T05:51:40.112Z,93.59
2023-05-10T05:52:40.068Z,93.48
2023-05-10T05:53:40.465Z,93.59
2023-05-10T05:54:40.039Z,93.68
2023-05-10T05:55:40.066Z,94.04
2023-05-10T05:56:40.028Z,94.54
2023-05-10T05:57:40.053Z,95.36
2023-05-10T05:58:40.037Z,95.25
2023-05-10T05:59:40.005Z,95.86
2023-05-10T06:00:39.981Z,96.52
2023-05-10T06:01:40.120Z,97.13
2023-05-10T06:02:40.143Z,97.44
2023-05-10T06:03:40.065Z,97.64
2023-05-10T06:04:40.165Z,98.05
2023-05-10T06:05:39.982Z,97.84
2023-05-10T06:06:40.020Z,97.84
2023-05-10T06:07:39.937Z,97.44
2023-05-10T06:08:39.896Z,97.44
2023-05-10T06:09:39.917Z,97.64
2023-05-10T06:10:39.908Z,97.44
2023-05-10T06:11:39.890Z,97.74
2023-05-10T06:12:39.849Z,97.53
2023-05-10T06:13:39.873Z,97.53
2023-05-10T06:14:39.861Z,97.53
2023-05-10T06:15:39.868Z,97.23
2023-05-10T06:16:39.863Z,96.72
2023-05-10T06:17:39.964Z,97.03
2023-05-10T06:18:39.797Z,96.92
2023-05-10T06:19:39.820Z,97.33
2023-05-10T06:20:39.780Z,97.29
2023-05-10T06:21:39.848Z,96.98
2023-05-10T06:22:39.772Z,96.17
2023-05-10T06:23:39.798Z,95.86
2023-05-10T06:24:39.733Z,95.46
2023-05-10T06:25:39.750Z,95.97
2023-05-10T06:26:39.715Z,96.88
2023-05-10T06:27:39.718Z,95.97
2023-05-10T06:28:39.723Z,95.91
2023-05-10T06:29:39.718Z,96.37
2023-05-10T06:30:39.661Z,96.07
2023-05-10T06:31:40.612Z,96.17
2023-05-10T06:32:39.660Z,96.58
2023-05-10T06:33:39.706Z,96.68
2023-05-10T06:34:39.634Z,97.08
2023-05-10T06:35:39.658Z,96.98
2023-05-10T06:36:39.606Z,96.78
2023-05-10T06:37:39.634Z,96.68
2023-05-10T06:38:39.633Z,96.78
2023-05-10T06:39:39.594Z,96.88
2023-05-10T06:40:39.628Z,96.58
2023-05-10T06:41:39.599Z,96.37
2023-05-10T06:42:39.560Z,96.27
2023-05-10T06:43:39.566Z,96.07
2023-05-10T06:44:39.530Z,96.47
2023-05-10T06:45:39.571Z,96.47
2023-05-10T06:46:39.559Z,96.68
2023-05-10T06:47:39.717Z,96.83
2023-05-10T06:48:39.527Z,96.68
2023-05-10T06:49:39.504Z,96.47
2023-05-10T06:50:39.485Z,96.37
2023-05-10T06:51:39.483Z,96.37
2023-05-10T06:52:39.486Z,96.58
2023-05-10T06:53:39.455Z,96.07
2023-05-10T06:54:39.436Z,96.47
2023-05-10T06:55:39.463Z,96.98
2023-05-10T06:56:39.444Z,96.88
2023-05-10T06:57:39.452Z,96.68
2023-05-10T06:58:39.428Z,96.47
2023-05-10T06:59:39.517Z,96.07
2023-05-10T07:00:39.467Z,95.66
2023-05-10T07:01:39.458Z,95.56
2023-05-10T07:02:39.396Z,95.66
2023-05-10T07:03:39.391Z,95.66
2023-05-10T07:04:39.367Z,95.97
2023-05-10T07:05:39.625Z,96.27
2023-05-10T07:06:39.299Z,94.95
2023-05-10T07:07:39.343Z,94.44
2023-05-10T07:08:39.296Z,92.76
2023-05-10T07:09:39.319Z,92.04
2023-05-10T07:10:39.294Z,91.33
2023-05-10T07:11:39.265Z,91.43
2023-05-10T07:12:39.373Z,91.23
2023-05-10T07:13:39.291Z,90.92
2023-05-10T07:14:39.247Z,91.33
2023-05-10T07:15:39.265Z,91.23
2023-05-10T07:16:39.232Z,89.81
2023-05-10T07:17:39.259Z,87.77
2023-05-10T07:18:39.261Z,89.20
2023-05-10T07:19:39.203Z,89.40
2023-05-10T07:20:39.160Z,89.20
2023-05-10T07:21:39.174Z,89.09
2023-05-10T07:22:39.130Z,88.08
2023-05-10T07:23:39.178Z,88.69
2023-05-10T07:24:39.123Z,89.61
2023-05-10T07:25:39.141Z,89.81
2023-05-10T07:26:39.127Z,88.59
2023-05-10T07:27:39.108Z,88.59
2023-05-10T07:28:39.081Z,88.69
2023-05-10T07:29:39.103Z,89.56
2023-05-10T07:30:39.078Z,89.40
2023-05-10T07:31:39.106Z,89.50
2023-05-10T07:32:39.165Z,90.01
2023-05-10T07:33:39.055Z,90.58
2023-05-10T07:34:39.005Z,90.17
2023-05-10T07:35:39.059Z,88.34
2023-05-10T07:36:38.991Z,88.54
2023-05-10T07:37:39.028Z,89.31
2023-05-10T07:38:40.906Z,89.22
2023-05-10T07:39:39.101Z,87.38
2023-05-10T07:40:38.976Z,86.16
2023-05-10T07:41:38.967Z,86.07
2023-05-10T07:42:38.959Z,85.25
2023-05-10T07:43:38.950Z,85.52
2023-05-10T07:44:38.904Z,84.09
2023-05-10T07:45:38.974Z,84.60
2023-05-10T07:46:38.929Z,85.38
2023-05-10T07:47:38.957Z,86.80
2023-05-10T07:48:38.865Z,86.29
2023-05-10T07:49:38.883Z,84.05
2023-05-10T07:50:38.868Z,85.38
2023-05-10T07:51:38.875Z,84.46
2023-05-10T07:52:38.833Z,83.54
2023-05-10T07:53:38.839Z,83.65
2023-05-10T07:54:38.811Z,83.04
2023-05-10T07:55:38.819Z,82.94
2023-05-10T07:56:38.827Z,83.04
2023-05-10T07:57:38.807Z,83.20
2023-05-10T07:58:38.774Z,85.44
2023-05-10T07:59:38.812Z,84.46
2023-05-10T08:00:46.169Z,83.14
2023-05-10T08:01:38.757Z,83.85
2023-05-10T08:02:38.789Z,82.29
2023-05-10T08:03:38.890Z,82.50
2023-05-10T08:04:38.798Z,82.50
2023-05-10T08:05:38.711Z,82.80
2023-05-10T08:06:38.702Z,83.06
2023-05-10T08:07:38.692Z,81.44
2023-05-10T08:08:38.661Z,79.21
2023-05-10T08:09:38.723Z,81.34
2023-05-10T08:10:38.640Z,79.31
2023-05-10T08:11:38.671Z,80.73
2023-05-10T08:12:38.674Z,81.54
2023-05-10T08:13:38.631Z,81.64
2023-05-10T08:14:38.646Z,81.95
2023-05-10T08:15:38.631Z,81.04
2023-05-10T08:16:38.572Z,79.68
2023-05-10T08:17:38.693Z,80.32
2023-05-10T08:18:38.583Z,80.63
2023-05-10T08:19:38.567Z,80.49
2023-05-10T08:20:38.532Z,79.07
2023-05-10T08:21:38.550Z,78.56
2023-05-10T08:22:38.533Z,79.98
2023-05-10T08:23:38.532Z,80.69
2023-05-10T08:24:38.521Z,79.68
2023-05-10T08:25:38.511Z,80.05
2023-05-10T08:26:38.469Z,79.24
2023-05-10T08:27:38.525Z,78.93
2023-05-10T08:28:38.447Z,80.25
2023-05-10T08:29:49.028Z,79.03
2023-05-10T08:30:38.464Z,79.44
2023-05-10T08:31:38.485Z,79.85
2023-05-10T08:32:38.512Z,78.02
2023-05-10T08:33:38.447Z,80.15
2023-05-10T08:34:38.387Z,79.03
2023-05-10T08:35:38.386Z,77.82
2023-05-10T08:36:38.376Z,78.28
2023-05-10T08:37:38.372Z,77.78
2023-05-10T08:38:38.386Z,77.48
2023-05-10T08:39:38.431Z,77.98
2023-05-10T08:40:38.306Z,76.67
2023-05-10T08:41:38.323Z,77.07
2023-05-10T08:42:38.315Z,76.73
2023-05-10T08:43:38.306Z,76.63
2023-05-10T08:44:38.277Z,76.53
2023-05-10T08:45:38.298Z,76.36
2023-05-10T08:46:38.313Z,77.24
2023-05-10T08:47:38.303Z,76.12
2023-05-10T08:48:38.280Z,75.82
2023-05-10T08:49:38.210Z,74.81
2023-05-10T08:50:38.227Z,76.23
2023-05-10T08:51:38.372Z,75.31
2023-05-10T08:52:38.211Z,75.42
2023-05-10T08:53:38.180Z,75.21
2023-05-10T08:54:38.179Z,75.11
2023-05-10T08:55:38.141Z,75.72
2023-05-10T08:56:45.118Z,75.72
2023-05-10T08:57:38.146Z,74.81
2023-05-10T08:58:38.140Z,75.38
2023-05-10T08:59:38.112Z,74.87
2023-05-10T09:00:38.283Z,75.48
2023-05-10T09:01:38.126Z,75.14
2023-05-10T09:02:38.238Z,74.94
2023-05-10T09:03:38.075Z,74.94
2023-05-10T09:04:38.173Z,77.03
2023-05-10T09:05:38.044Z,75.01
2023-05-10T09:06:38.143Z,74.80
2023-05-10T09:07:38.010Z,72.78
2023-05-10T09:08:38.058Z,74.03
2023-05-10T09:09:38.004Z,73.22
2023-05-10T09:10:38.007Z,73.76
2023-05-10T09:11:37.987Z,74.03
2023-05-10T09:12:38.396Z,74.03
2023-05-10T09:13:37.951Z,73.12
2023-05-10T09:14:37.970Z,74.13
2023-05-10T09:15:37.958Z,73.43
2023-05-10T09:16:38.095Z,74.84
2023-05-10T09:17:37.960Z,73.72
2023-05-10T09:18:37.984Z,73.02
2023-05-10T09:19:37.940Z,72.92
2023-05-10T09:20:37.905Z,74.03
2023-05-10T09:21:37.898Z,73.63
2023-05-10T09:22:37.890Z,73.43
2023-05-10T09:23:37.855Z,73.63
2023-05-10T09:24:37.909Z,72.68
2023-05-10T09:25:37.828Z,73.49
2023-05-10T09:26:37.932Z,73.69
2023-05-10T09:27:37.813Z,73.28
2023-05-10T09:28:37.879Z,73.35
2023-05-10T09:29:37.794Z,72.85
2023-05-10T09:30:37.873Z,72.55
2023-05-10T09:31:37.793Z,72.04
2023-05-10T09:32:37.784Z,70.76
2023-05-10T09:33:37.739Z,70.69
2023-05-10T09:34:37.754Z,70.32
2023-05-10T09:35:37.794Z,71.44
2023-05-10T09:36:37.799Z,70.32
2023-05-10T09:37:37.692Z,70.89
2023-05-10T09:38:37.724Z,69.58
2023-05-10T09:39:37.685Z,69.89
2023-05-10T09:40:37.730Z,69.98
2023-05-10T09:41:37.659Z,70.56
2023-05-10T09:42:37.698Z,70.46
2023-05-10T09:43:37.631Z,69.85
2023-05-10T09:44:37.647Z,69.92
2023-05-10T09:45:39.010Z,69.21
2023-05-10T09:46:37.692Z,68.80
2023-05-10T09:47:37.701Z,68.84
2023-05-10T09:48:37.610Z,68.94
2023-05-10T09:49:37.592Z,69.01
2023-05-10T09:50:37.615Z,68.20
2023-05-10T09:51:37.588Z,68.10
2023-05-10T09:52:37.578Z,68.63
2023-05-10T09:53:37.548Z,69.42
2023-05-10T09:54:37.611Z,69.62
2023-05-10T09:55:37.525Z,68.80
2023-05-10T09:56:37.538Z,69.18
2023-05-10T09:57:37.515Z,69.51
2023-05-10T09:58:37.501Z,70.32
2023-05-10T09:59:37.463Z,70.53
2023-05-10T10:00:37.502Z,70.32
2023-05-10T10:01:37.452Z,70.32
2023-05-10T10:02:37.535Z,70.96
2023-05-10T10:03:37.465Z,70.66
2023-05-10T10:04:37.494Z,69.75
2023-05-10T10:05:37.386Z,69.65
2023-05-10T10:06:37.397Z,69.55
2023-05-10T10:07:37.399Z,70.25
2023-05-10T10:08:37.413Z,70.25
2023-05-10T10:09:37.359Z,70.56
2023-05-10T10:10:37.381Z,70.66
2023-05-10T10:11:37.332Z,70.05
2023-05-10T10:12:37.345Z,69.51
2023-05-10T10:13:37.329Z,68.91
2023-05-10T10:14:37.342Z,68.30
2023-05-10T10:15:37.370Z,67.86
2023-05-10T10:16:39.950Z,68.51
2023-05-10T10:17:37.276Z,68.91
2023-05-10T10:18:37.375Z,67.49
2023-05-10T10:19:37.667Z,67.80
2023-05-10T10:20:37.281Z,66.15
2023-05-10T10:21:37.224Z,65.61
2023-05-10T10:22:37.235Z,65.51
2023-05-10T10:23:37.246Z,65.99
2023-05-10T10:24:37.223Z,64.84
2023-05-10T10:25:37.178Z,64.75
2023-05-10T10:26:37.181Z,63.70
2023-05-10T10:27:37.155Z,64.24
2023-05-10T10:28:37.190Z,65.45
2023-05-10T10:29:37.126Z,64.84
2023-05-10T10:30:37.156Z,64.81
2023-05-10T10:31:37.284Z,63.87
2023-05-10T10:32:37.134Z,64.07
2023-05-10T10:33:37.145Z,61.83
2023-05-10T10:34:37.094Z,61.83
2023-05-10T10:35:37.097Z,62.84
2023-05-10T10:36:37.080Z,62.16
2023-05-10T10:37:37.050Z,60.45
2023-05-10T10:38:37.046Z,60.75
2023-05-10T10:39:37.020Z,61.89
2023-05-10T10:40:37.452Z,62.60
2023-05-10T10:41:37.033Z,63.40
2023-05-10T10:42:37.012Z,64.41
2023-05-10T10:43:36.981Z,64.18
2023-05-10T10:44:37.031Z,63.14
2023-05-10T10:45:37.022Z,63.04
2023-05-10T10:46:36.983Z,62.10
2023-05-10T10:47:36.932Z,61.87
2023-05-10T10:48:36.936Z,59.76
2023-05-10T10:49:36.933Z,59.76
2023-05-10T10:50:36.928Z,60.67
2023-05-10T10:51:36.898Z,65.90
2023-05-10T10:52:36.918Z,60.87
2023-05-10T10:53:36.887Z,60.69
2023-05-10T10:54:36.881Z,60.49
2023-05-10T10:55:36.912Z,61.20
2023-05-10T10:56:37.216Z,61.10
2023-05-10T10:57:36.820Z,62.01
2023-05-10T10:58:36.852Z,62.26
2023-05-10T10:59:36.817Z,62.77
2023-05-10T11:00:36.893Z,62.84
2023-05-10T11:01:36.964Z,62.66
2023-05-10T11:02:36.853Z,63.78
2023-05-10T11:03:36.776Z,65.38
2023-05-10T11:04:36.784Z,66.29
2023-05-10T11:05:36.774Z,65.88
2023-05-10T11:06:36.972Z,65.65
2023-05-10T11:07:36.715Z,64.81
2023-05-10T11:08:38.301Z,65.59
2023-05-10T11:09:36.703Z,64.05
2023-05-10T11:10:36.783Z,61.63
2023-05-10T11:11:36.691Z,61.73
2023-05-10T11:12:36.685Z,61.00
2023-05-10T11:13:36.652Z,60.39
2023-05-10T11:14:36.659Z,59.76
2023-05-10T11:15:36.667Z,59.46
2023-05-10T11:16:36.717Z,59.76
2023-05-10T11:17:36.643Z,60.27
2023-05-10T11:18:36.699Z,59.13
2023-05-10T11:19:36.594Z,58.42
2023-05-10T11:20:36.615Z,58.86
2023-05-10T11:21:36.599Z,59.03
2023-05-10T11:22:36.592Z,59.36
2023-05-10T11:23:36.618Z,57.65
2023-05-10T11:24:36.577Z,56.07
2023-05-10T11:25:36.523Z,57.20
2023-05-10T11:26:36.580Z,58.38
2023-05-10T11:27:36.528Z,58.78
2023-05-10T11:28:36.534Z,59.39
2023-05-10T11:29:36.489Z,59.26
2023-05-10T11:30:36.516Z,60.19
2023-05-10T11:31:36.504Z,60.60
2023-05-10T11:32:36.543Z,61.00
2023-05-10T11:33:36.449Z,61.13
2023-05-10T11:34:36.601Z,59.22
2023-05-10T11:35:36.450Z,58.18
2023-05-10T11:36:36.455Z,58.38
2023-05-10T11:37:36.394Z,58.51
2023-05-10T11:38:36.452Z,59.11
2023-05-10T11:39:36.412Z,59.95
2023-05-10T11:40:36.409Z,59.67
2023-05-10T11:41:36.383Z,59.97
2023-05-10T11:42:36.374Z,59.84
2023-05-10T11:43:36.338Z,60.65
2023-05-10T11:44:36.390Z,61.36
2023-05-10T11:45:36.362Z,60.32
2023-05-10T11:46:36.360Z,59.75
2023-05-10T11:47:36.350Z,59.62
2023-05-10T11:48:36.310Z,59.72
2023-05-10T11:49:36.290Z,60.72
2023-05-10T11:50:36.299Z,60.32
2023-05-10T11:51:36.263Z,60.42
2023-05-10T11:52:36.286Z,59.52
2023-05-10T11:53:36.253Z,61.83
2023-05-10T11:54:36.286Z,61.63
2023-05-10T11:55:36.222Z,63.04
2023-05-10T11:56:36.239Z,63.45
2023-05-10T11:57:36.214Z,63.17
2023-05-10T11:58:36.214Z,64.18
2023-05-10T11:59:36.201Z,65.22
2023-05-10T12:00:36.210Z,65.72
2023-05-10T12:01:36.186Z,66.42
2023-05-10T12:02:36.226Z,66.22
2023-05-10T12:03:36.240Z,66.05
2023-05-10T12:04:36.210Z,66.46
2023-05-10T12:05:36.100Z,66.05
2023-05-10T12:06:36.138Z,66.25
2023-05-10T12:07:36.136Z,66.66
2023-05-10T12:08:36.114Z,67.07
2023-05-10T12:09:43.773Z,66.83
2023-05-10T12:10:36.086Z,66.73
2023-05-10T12:11:36.069Z,66.02
2023-05-10T12:12:36.064Z,66.33
2023-05-10T12:13:36.020Z,67.23
2023-05-10T12:14:36.081Z,65.79
2023-05-10T12:15:35.997Z,64.98
2023-05-10T12:16:36.062Z,65.19
2023-05-10T12:17:36.015Z,65.89
2023-05-10T12:18:36.047Z,66.30
2023-05-10T12:19:35.962Z,64.81
2023-05-10T12:20:35.968Z,65.12
2023-05-10T12:21:35.967Z,66.16
2023-05-10T12:22:35.948Z,66.56
2023-05-10T12:23:35.939Z,67.97
2023-05-10T12:24:35.939Z,67.77
2023-05-10T12:25:35.903Z,67.77
2023-05-10T12:26:35.931Z,67.87
2023-05-10T12:27:35.873Z,67.87
2023-05-10T12:28:35.886Z,67.87
2023-05-10T12:29:35.870Z,68.37
2023-05-10T12:30:35.947Z,67.97
2023-05-10T12:31:35.879Z,68.01
2023-05-10T12:32:35.878Z,68.51
2023-05-10T12:33:35.818Z,68.51
2023-05-10T12:34:35.823Z,68.81
2023-05-10T12:35:35.801Z,70.12
2023-05-10T12:36:35.807Z,70.42
2023-05-10T12:37:35.956Z,70.96
2023-05-10T12:38:35.786Z,72.27
2023-05-10T12:39:35.824Z,73.49
2023-05-10T12:40:35.809Z,75.00
2023-05-10T12:41:35.757Z,76.95
2023-05-10T12:42:35.781Z,78.37
2023-05-10T12:43:35.734Z,79.48
2023-05-10T12:44:35.710Z,81.03
2023-05-10T12:45:35.728Z,81.44
2023-05-10T12:46:35.737Z,82.59
2023-05-10T12:47:35.746Z,83.40
2023-05-10T12:48:35.675Z,84.00
2023-05-10T12:49:35.660Z,84.95
2023-05-10T12:50:35.690Z,85.39
2023-05-10T12:51:35.648Z,83.04
2023-05-10T12:52:35.635Z,86.22